Time;durP1;ratioP1;P1;durP2;ratioP2;P2;SDS_P1;SDS_P2;PMS_P1;PMS_P2;Temp;Humidity;BMP_temperature;BMP_pressure;BME280_temperature;BME280_humidity;BME280_pressure;Samples;Min_cycle;Max_cycle;Signal;HPM_P1;HPM_P2
2021/08/25 00:02:03;;;;;;;2.70;1.90;;;23.80;56.80;;;;;;5028943;28;20383;-59
2021/08/25 00:04:29;;;;;;;3.17;2.13;;;23.80;56.80;;;;;;5045618;28;20029;-58
2021/08/25 00:06:55;;;;;;;2.80;2.15;;;23.80;56.80;;;;;;5040563;28;20037;-58
2021/08/25 00:09:21;;;;;;;2.70;2.00;;;23.70;56.80;;;;;;5039879;28;20113;-61
2021/08/25 00:11:46;;;;;;;3.88;2.42;;;23.80;56.80;;;;;;5034950;28;20021;-61
2021/08/25 00:14:12;;;;;;;3.00;2.20;;;23.80;56.80;;;;;;5044322;28;20025;-60
2021/08/25 00:16:38;;;;;;;3.35;2.00;;;23.80;56.80;;;;;;5048651;28;20029;-61
2021/08/25 00:19:03;;;;;;;3.40;2.00;;;23.80;56.80;;;;;;5053607;28;20029;-60
2021/08/25 00:21:29;;;;;;;3.20;2.10;;;23.80;56.80;;;;;;5050410;28;20025;-59
2021/08/25 00:23:54;;;;;;;3.17;2.30;;;23.80;56.70;;;;;;5052007;28;20043;-60
2021/08/25 00:26:20;;;;;;;3.15;2.00;;;23.80;56.80;;;;;;5048903;28;20029;-61
2021/08/25 00:28:46;;;;;;;3.08;2.00;;;23.70;56.70;;;;;;5047430;28;20060;-61
2021/08/25 00:31:14;;;;;;;3.33;2.00;;;23.80;56.70;;;;;;5048971;28;20033;-54
2021/08/25 00:33:40;;;;;;;3.78;2.10;;;23.80;56.70;;;;;;5046717;28;20453;-61
2021/08/25 00:36:05;;;;;;;2.75;2.17;;;23.70;56.70;;;;;;5048193;28;20032;-59
2021/08/25 00:38:31;;;;;;;3.58;2.10;;;23.70;56.70;;;;;;5033684;28;20322;-60
2021/08/25 00:40:58;;;;;;;2.92;2.20;;;23.70;56.70;;;;;;5051678;28;20029;-61
2021/08/25 00:43:23;;;;;;;2.63;2.17;;;23.70;56.70;;;;;;5044993;28;20045;-61
2021/08/25 00:45:49;;;;;;;3.20;2.15;;;23.70;56.70;;;;;;5040956;28;20090;-61
2021/08/25 00:48:17;;;;;;;3.28;2.00;;;23.70;56.70;;;;;;5057538;28;20113;-60
2021/08/25 00:50:46;;;;;;;3.53;2.10;;;23.70;56.70;;;;;;5055114;28;20027;-61
2021/08/25 00:53:12;;;;;;;2.83;1.80;;;23.70;56.70;;;;;;5061120;28;20105;-61
2021/08/25 00:55:38;;;;;;;2.65;2.00;;;23.70;56.70;;;;;;5059595;28;20158;-61
2021/08/25 00:58:06;;;;;;;3.72;2.08;;;23.70;56.60;;;;;;5041898;28;20094;-60
2021/08/25 01:00:33;;;;;;;3.20;2.05;;;23.70;56.60;;;;;;5046713;28;20017;-61
2021/08/25 01:03:24;;;;;;;3.85;2.00;;;23.70;56.60;;;;;;5038702;28;20026;-58
2021/08/25 01:05:51;;;;;;;3.95;1.98;;;23.70;56.60;;;;;;5046122;28;20112;-61
2021/08/25 01:08:17;;;;;;;2.53;2.00;;;23.70;56.60;;;;;;5047403;28;20028;-61
2021/08/25 01:10:42;;;;;;;2.80;1.75;;;23.70;56.60;;;;;;5048097;28;20036;-56
2021/08/25 01:13:10;;;;;;;2.50;1.80;;;23.70;56.60;;;;;;5040535;28;20033;-60
2021/08/25 01:15:38;;;;;;;3.65;2.22;;;23.70;56.60;;;;;;5047490;28;20029;-61
2021/08/25 01:18:12;;;;;;;2.58;1.77;;;23.70;56.60;;;;;;5048062;28;20029;-60
2021/08/25 01:20:40;;;;;;;3.63;1.80;;;23.70;56.60;;;;;;5045249;28;20334;-61
2021/08/25 01:23:05;;;;;;;2.63;1.90;;;23.70;56.60;;;;;;5034030;28;20056;-61
2021/08/25 01:25:33;;;;;;;2.72;2.08;;;23.70;56.60;;;;;;5037184;28;20595;-61
2021/08/25 01:28:04;;;;;;;2.88;1.90;;;23.70;56.60;;;;;;5031830;28;20539;-60
2021/08/25 01:30:33;;;;;;;2.97;2.10;;;23.60;56.50;;;;;;5040377;28;20106;-61
2021/08/25 01:32:59;;;;;;;2.40;1.77;;;23.70;56.60;;;;;;5046008;28;20033;-61
2021/08/25 01:35:38;;;;;;;3.75;2.22;;;23.70;56.70;;;;;;5034795;28;20030;-59
2021/08/25 01:38:08;;;;;;;2.50;1.88;;;23.60;56.60;;;;;;5044918;28;20044;-61
2021/08/25 01:40:34;;;;;;;3.13;1.80;;;23.60;56.50;;;;;;5040801;28;20024;-61
2021/08/25 01:43:01;;;;;;;2.50;1.90;;;23.60;56.50;;;;;;5035050;28;20551;-61
2021/08/25 01:45:27;;;;;;;2.75;1.88;;;23.60;56.50;;;;;;5035735;28;20037;-58
2021/08/25 01:47:52;;;;;;;2.38;1.75;;;23.60;56.50;;;;;;5042289;28;20090;-60
2021/08/25 01:50:19;;;;;;;2.83;1.95;;;23.60;56.50;;;;;;5047057;28;20799;-60
2021/08/25 01:52:44;;;;;;;2.55;1.73;;;23.60;56.50;;;;;;5041126;28;20033;-61
2021/08/25 01:55:10;;;;;;;3.38;1.80;;;23.60;56.50;;;;;;5060412;28;20187;-61
2021/08/25 01:57:36;;;;;;;2.95;1.95;;;23.60;56.50;;;;;;5047256;28;20104;-61
2021/08/25 02:00:03;;;;;;;2.53;2.00;;;23.60;56.50;;;;;;5040285;28;20087;-60
2021/08/25 02:02:29;;;;;;;2.92;1.80;;;23.60;56.50;;;;;;5042995;28;20069;-60
2021/08/25 02:04:54;;;;;;;3.17;2.08;;;23.60;56.50;;;;;;5029880;28;20081;-61
2021/08/25 02:07:20;;;;;;;2.53;1.80;;;23.60;56.50;;;;;;5043616;28;20025;-59
2021/08/25 02:09:46;;;;;;;3.28;1.90;;;23.60;56.50;;;;;;5046168;28;20037;-60
2021/08/25 02:12:11;;;;;;;3.08;1.90;;;23.60;56.50;;;;;;5032481;28;20041;-61
2021/08/25 02:14:37;;;;;;;2.50;1.80;;;23.60;56.50;;;;;;5035648;28;20025;-61
2021/08/25 02:17:06;;;;;;;2.50;1.65;;;23.60;56.50;;;;;;5042291;28;20364;-59
2021/08/25 02:19:32;;;;;;;2.30;1.67;;;23.60;56.50;;;;;;5046289;28;20071;-60
2021/08/25 02:21:57;;;;;;;1.95;1.50;;;23.60;56.50;;;;;;5037117;28;20355;-60
2021/08/25 02:24:23;;;;;;;2.00;1.73;;;23.60;56.50;;;;;;5042552;28;20060;-60
2021/08/25 02:26:48;;;;;;;2.30;1.70;;;23.60;56.50;;;;;;5049673;28;20044;-60
2021/08/25 02:29:14;;;;;;;2.58;1.95;;;23.60;56.40;;;;;;5044901;28;20037;-61
2021/08/25 02:31:40;;;;;;;2.53;1.80;;;23.60;56.50;;;;;;5043896;28;20025;-59
2021/08/25 02:34:05;;;;;;;2.30;1.70;;;23.60;56.40;;;;;;5047169;28;20033;-61
2021/08/25 02:36:31;;;;;;;2.50;1.63;;;23.60;56.50;;;;;;5050522;28;20100;-61
2021/08/25 02:38:57;;;;;;;2.72;2.00;;;23.60;56.50;;;;;;5050171;28;20045;-61
2021/08/25 02:41:23;;;;;;;2.42;1.67;;;23.60;56.50;;;;;;5051020;28;20113;-60
2021/08/25 02:43:48;;;;;;;2.67;1.95;;;23.60;56.50;;;;;;5058530;28;20123;-57
2021/08/25 02:46:14;;;;;;;2.85;2.00;;;23.50;56.40;;;;;;5041625;28;20036;-60
2021/08/25 02:48:41;;;;;;;2.55;1.90;;;23.50;56.40;;;;;;5047450;28;20029;-60
2021/08/25 02:51:06;;;;;;;2.95;1.70;;;23.50;56.40;;;;;;5050781;28;20029;-62
2021/08/25 02:53:32;;;;;;;2.47;1.90;;;23.50;56.40;;;;;;5040591;28;20048;-60
2021/08/25 02:55:57;;;;;;;2.22;1.67;;;23.50;56.40;;;;;;5035833;28;20033;-60
2021/08/25 02:58:23;;;;;;;2.55;1.92;;;23.50;56.40;;;;;;5044508;28;20362;-62
2021/08/25 03:00:49;;;;;;;2.33;1.77;;;23.50;56.40;;;;;;5033704;28;20047;-59
2021/08/25 03:03:14;;;;;;;2.63;1.70;;;23.50;56.40;;;;;;5045801;28;20443;-60
2021/08/25 03:05:40;;;;;;;2.72;1.70;;;23.50;56.40;;;;;;5035653;28;20060;-60
2021/08/25 03:08:05;;;;;;;2.60;1.77;;;23.50;56.40;;;;;;5034489;28;20509;-60
2021/08/25 03:10:31;;;;;;;2.65;1.77;;;23.50;56.40;;;;;;5037687;28;20112;-58
2021/08/25 03:12:57;;;;;;;2.67;1.80;;;23.50;56.40;;;;;;5044798;28;20049;-60
2021/08/25 03:15:22;;;;;;;2.40;1.80;;;23.50;56.40;;;;;;5031112;28;20156;-61
2021/08/25 03:17:48;;;;;;;2.22;1.75;;;23.50;56.40;;;;;;5034148;28;20060;-61
2021/08/25 03:20:14;;;;;;;2.55;1.67;;;23.50;56.40;;;;;;5042022;28;20036;-60
2021/08/25 03:22:40;;;;;;;2.15;1.70;;;23.50;56.40;;;;;;5034020;28;20043;-62
2021/08/25 03:25:08;;;;;;;2.15;1.70;;;23.40;56.30;;;;;;5034106;28;20029;-61
2021/08/25 03:27:34;;;;;;;2.40;1.70;;;23.50;56.40;;;;;;5042448;28;20029;-60
2021/08/25 03:29:59;;;;;;;2.45;1.70;;;23.40;56.30;;;;;;5040102;28;20025;-62
2021/08/25 03:32:25;;;;;;;2.30;1.70;;;23.50;56.40;;;;;;5050802;28;20025;-59
2021/08/25 03:34:50;;;;;;;2.10;1.63;;;23.40;56.30;;;;;;5032585;28;20116;-60
2021/08/25 03:37:16;;;;;;;3.50;1.90;;;23.40;56.30;;;;;;5028997;28;20481;-60
2021/08/25 03:39:42;;;;;;;2.80;1.70;;;23.40;56.80;;;;;;5048879;28;20029;-61
2021/08/25 03:42:09;;;;;;;2.88;1.77;;;23.40;56.30;;;;;;5048826;28;20098;-60
2021/08/25 03:44:39;;;;;;;2.25;1.70;;;23.40;56.30;;;;;;5034913;28;20362;-61
2021/08/25 03:47:06;;;;;;;2.40;1.77;;;23.40;56.30;;;;;;5048093;28;20163;-62
2021/08/25 03:49:32;;;;;;;3.00;1.88;;;23.40;56.30;;;;;;5048767;28;20040;-61
2021/08/25 03:51:58;;;;;;;2.25;1.65;;;23.40;56.30;;;;;;5049797;28;20031;-61
2021/08/25 03:54:24;;;;;;;2.58;1.70;;;23.40;56.30;;;;;;5054760;28;20461;-62
2021/08/25 03:56:49;;;;;;;1.95;1.50;;;23.40;56.30;;;;;;5028787;28;20587;-59
2021/08/25 03:59:15;;;;;;;2.40;1.63;;;23.40;56.30;;;;;;5038856;28;20043;-61
2021/08/25 04:01:41;;;;;;;2.45;1.70;;;23.40;56.30;;;;;;5048389;28;20037;-61
2021/08/25 04:04:10;;;;;;;2.15;1.70;;;23.40;56.30;;;;;;5046550;28;20037;-61
2021/08/25 04:06:36;;;;;;;2.20;1.60;;;23.40;56.30;;;;;;5039759;28;20154;-62
2021/08/25 04:09:03;;;;;;;2.20;1.70;;;23.40;56.30;;;;;;5042616;28;20045;-62
2021/08/25 04:11:29;;;;;;;2.13;1.80;;;23.40;56.30;;;;;;5044481;28;20532;-61
2021/08/25 04:13:54;;;;;;;2.08;1.50;;;23.40;56.30;;;;;;5043281;28;20060;-60
2021/08/25 04:16:20;;;;;;;2.17;1.65;;;23.40;56.30;;;;;;5033602;28;20033;-62
2021/08/25 04:18:46;;;;;;;2.33;1.70;;;23.40;56.30;;;;;;5028496;28;20865;-61
2021/08/25 04:21:12;;;;;;;3.03;1.52;;;23.40;56.30;;;;;;5050194;28;20039;-60
2021/08/25 04:23:37;;;;;;;2.10;1.58;;;23.40;56.30;;;;;;5034981;28;20145;-61
2021/08/25 04:26:03;;;;;;;2.22;1.50;;;23.40;56.30;;;;;;5038463;28;20083;-61
2021/08/25 04:28:28;;;;;;;2.22;1.60;;;23.40;56.30;;;;;;5044343;28;20047;-60
2021/08/25 04:30:54;;;;;;;2.25;1.58;;;23.40;56.30;;;;;;5047514;28;20671;-61
2021/08/25 04:33:20;;;;;;;2.00;1.50;;;23.40;56.30;;;;;;5045639;28;20032;-58
2021/08/25 04:35:45;;;;;;;2.30;1.60;;;23.30;56.20;;;;;;5039023;28;20098;-58
2021/08/25 04:38:11;;;;;;;2.00;1.50;;;23.40;56.30;;;;;;5048151;28;20025;-58
2021/08/25 04:40:37;;;;;;;2.00;1.50;;;23.40;56.30;;;;;;5044594;28;20062;-61
2021/08/25 04:43:03;;;;;;;2.22;1.60;;;23.30;56.30;;;;;;5037055;28;20033;-60
2021/08/25 04:45:28;;;;;;;2.97;1.80;;;23.30;56.20;;;;;;5047355;28;20373;-60
2021/08/25 04:47:54;;;;;;;1.85;1.50;;;23.30;56.20;;;;;;5043288;28;20033;-58
2021/08/25 04:50:20;;;;;;;2.20;1.67;;;23.30;56.20;;;;;;5043222;28;20134;-57
2021/08/25 04:52:45;;;;;;;2.50;1.60;;;23.40;56.30;;;;;;5038101;28;20501;-56
2021/08/25 04:55:11;;;;;;;2.67;1.60;;;23.30;56.20;;;;;;5047583;28;20078;-61
2021/08/25 04:57:37;;;;;;;1.92;1.60;;;23.30;56.20;;;;;;5045541;28;20044;-62
2021/08/25 05:00:04;;;;;;;2.28;1.58;;;23.30;56.30;;;;;;5044890;28;20139;-60
2021/08/25 05:02:29;;;;;;;1.95;1.55;;;23.30;56.20;;;;;;5035267;28;20033;-60
2021/08/25 05:04:55;;;;;;;2.30;1.60;;;23.30;56.70;;;;;;5045758;28;20074;-60
2021/08/25 05:07:20;;;;;;;2.45;1.80;;;23.30;56.20;;;;;;5044508;28;20036;-60
2021/08/25 05:09:46;;;;;;;2.30;1.70;;;23.30;56.20;;;;;;5039793;28;20061;-61
2021/08/25 05:12:12;;;;;;;2.50;1.60;;;23.30;56.10;;;;;;5032883;28;20122;-60
2021/08/25 05:14:38;;;;;;;2.28;1.65;;;23.30;56.10;;;;;;5046248;28;20029;-60
2021/08/25 05:17:03;;;;;;;2.60;1.70;;;23.30;56.10;;;;;;5047672;28;20483;-60
2021/08/25 05:19:29;;;;;;;2.60;1.60;;;23.30;56.00;;;;;;5045443;28;20041;-62
2021/08/25 05:21:55;;;;;;;2.55;1.70;;;23.30;56.00;;;;;;5041455;28;20020;-59
2021/08/25 05:24:20;;;;;;;2.10;1.60;;;23.30;56.00;;;;;;5045804;28;20036;-62
2021/08/25 05:26:47;;;;;;;2.10;1.55;;;23.30;56.00;;;;;;5035440;28;20028;-61
2021/08/25 05:29:12;;;;;;;2.30;1.70;;;23.30;56.00;;;;;;5047344;28;20060;-60
2021/08/25 05:31:38;;;;;;;2.30;1.60;;;23.30;56.00;;;;;;5032947;28;20120;-62
2021/08/25 05:34:04;;;;;;;2.13;1.60;;;23.30;56.00;;;;;;5042777;28;20029;-60
2021/08/25 05:36:29;;;;;;;2.28;1.70;;;23.30;55.90;;;;;;5057999;28;20025;-61
2021/08/25 05:38:55;;;;;;;2.33;1.70;;;23.30;56.00;;;;;;5046878;28;20059;-61
2021/08/25 05:41:21;;;;;;;2.55;1.80;;;23.30;56.00;;;;;;5047626;28;20070;-60
2021/08/25 05:43:46;;;;;;;2.75;1.77;;;23.30;55.90;;;;;;5044756;28;20044;-60
2021/08/25 05:46:12;;;;;;;2.47;1.70;;;23.20;55.90;;;;;;5045695;28;20100;-61
2021/08/25 05:48:38;;;;;;;2.40;1.65;;;23.20;55.90;;;;;;5041478;28;20036;-59
2021/08/25 05:51:03;;;;;;;2.20;1.60;;;23.20;55.90;;;;;;5059276;28;20099;-58
2021/08/25 05:53:29;;;;;;;2.00;1.50;;;23.20;55.90;;;;;;5046775;28;20045;-61
2021/08/25 05:55:55;;;;;;;1.90;1.60;;;23.20;56.00;;;;;;5039826;28;20040;-57
2021/08/25 05:58:21;;;;;;;2.00;1.60;;;23.20;56.00;;;;;;5036243;28;20075;-60
2021/08/25 06:00:46;;;;;;;2.10;1.60;;;23.20;56.00;;;;;;5045530;28;20408;-61
2021/08/25 06:03:12;;;;;;;2.28;1.67;;;23.20;56.00;;;;;;5040236;28;20039;-55
2021/08/25 06:05:37;;;;;;;2.58;1.50;;;23.20;56.00;;;;;;5043185;28;20416;-62
2021/08/25 06:08:05;;;;;;;2.10;1.50;;;23.20;56.00;;;;;;5038685;28;20036;-60
2021/08/25 06:10:30;;;;;;;2.10;1.60;;;23.20;56.00;;;;;;5050120;28;20054;-60
2021/08/25 06:12:56;;;;;;;2.10;1.60;;;23.20;56.00;;;;;;5045860;28;20090;-57
2021/08/25 06:15:22;;;;;;;2.17;1.40;;;23.20;56.00;;;;;;5047061;28;20028;-60
2021/08/25 06:17:48;;;;;;;2.40;1.70;;;23.20;55.90;;;;;;5030106;28;20378;-59
2021/08/25 06:20:14;;;;;;;3.00;2.38;;;23.20;55.90;;;;;;5046805;28;20028;-60
2021/08/25 06:22:40;;;;;;;4.43;3.53;;;23.20;53.00;;;;;;5035216;28;20037;-62
2021/08/25 06:25:06;;;;;;;5.85;3.30;;;23.10;51.30;;;;;;5043798;28;20480;-60
2021/08/25 06:27:32;;;;;;;4.75;3.60;;;23.10;50.50;;;;;;5039996;28;20097;-60
2021/08/25 06:29:57;;;;;;;6.05;3.55;;;23.10;50.20;;;;;;5040229;28;20504;-62
2021/08/25 06:32:23;;;;;;;4.78;3.40;;;23.00;49.80;;;;;;5032802;28;20463;-60
2021/08/25 06:34:49;;;;;;;4.65;3.30;;;23.00;49.60;;;;;;5031622;28;20108;-60
2021/08/25 06:37:14;;;;;;;4.78;3.72;;;22.90;49.00;;;;;;5047993;28;20087;-60
2021/08/25 06:39:43;;;;;;;4.50;3.30;;;22.90;49.50;;;;;;5042167;28;20036;-59
2021/08/25 06:42:09;;;;;;;5.57;3.25;;;22.80;49.10;;;;;;5049740;28;20048;-61
2021/08/25 06:44:34;;;;;;;4.68;3.42;;;22.70;49.50;;;;;;5048777;28;20087;-60
2021/08/25 06:47:00;;;;;;;4.60;3.42;;;22.70;49.50;;;;;;5048855;28;20025;-59
2021/08/25 06:49:25;;;;;;;5.47;3.58;;;22.60;49.40;;;;;;5050815;28;20554;-57
2021/08/25 06:51:51;;;;;;;3.92;2.97;;;22.60;49.80;;;;;;5050521;28;20024;-60
2021/08/25 06:54:17;;;;;;;3.78;2.90;;;22.50;50.00;;;;;;5062982;28;20032;-60
2021/08/25 06:56:42;;;;;;;3.67;2.55;;;22.50;50.30;;;;;;5046295;28;20024;-59
2021/08/25 06:59:08;;;;;;;3.30;2.38;;;22.40;50.50;;;;;;5049708;28;20091;-60
2021/08/25 07:01:34;;;;;;;5.38;2.40;;;22.40;50.70;;;;;;5039761;28;20037;-61
2021/08/25 07:03:59;;;;;;;3.15;2.33;;;22.40;50.80;;;;;;5037568;28;20033;-54
2021/08/25 07:06:25;;;;;;;3.05;2.20;;;22.40;51.00;;;;;;5038211;28;20081;-60
2021/08/25 07:08:50;;;;;;;2.95;2.10;;;22.40;51.10;;;;;;5041117;28;20044;-61
2021/08/25 07:11:16;;;;;;;3.80;2.47;;;22.40;51.30;;;;;;5044291;28;20045;-61
2021/08/25 07:13:42;;;;;;;3.10;2.20;;;22.40;51.40;;;;;;5049632;28;20076;-57
2021/08/25 07:16:07;;;;;;;3.17;2.13;;;22.40;51.50;;;;;;5038039;28;20035;-60
2021/08/25 07:18:34;;;;;;;3.47;2.20;;;22.40;51.70;;;;;;5037125;28;20155;-61
2021/08/25 07:21:00;;;;;;;3.28;2.30;;;22.40;51.80;;;;;;5044764;28;20116;-60
2021/08/25 07:23:25;;;;;;;3.17;2.15;;;22.40;52.00;;;;;;5049962;28;20103;-60
2021/08/25 07:25:51;;;;;;;2.90;2.10;;;22.40;52.10;;;;;;5048583;28;20059;-61
2021/08/25 07:28:17;;;;;;;3.15;2.10;;;22.40;52.20;;;;;;5048300;28;20054;-59
2021/08/25 07:30:42;;;;;;;2.53;1.90;;;22.40;52.20;;;;;;5046498;28;20369;-61
2021/08/25 07:33:12;;;;;;;2.70;1.98;;;22.40;52.30;;;;;;5041163;28;20679;-61
2021/08/25 07:35:38;;;;;;;2.67;1.85;;;22.40;52.40;;;;;;5038672;28;20082;-61
2021/08/25 07:38:04;;;;;;;2.80;2.00;;;22.40;52.50;;;;;;5048690;28;20027;-60
2021/08/25 07:40:30;;;;;;;3.03;2.00;;;22.40;52.50;;;;;;5050956;28;20044;-57
2021/08/25 07:42:55;;;;;;;2.63;2.00;;;22.50;52.70;;;;;;5045043;28;20052;-61
2021/08/25 07:45:21;;;;;;;2.78;2.00;;;22.40;52.60;;;;;;5047418;28;20036;-61
2021/08/25 07:47:47;;;;;;;2.45;1.85;;;22.40;52.70;;;;;;5036380;28;20033;-60
2021/08/25 07:50:13;;;;;;;2.63;1.75;;;22.40;52.80;;;;;;5048513;28;20377;-61
2021/08/25 07:52:39;;;;;;;3.10;2.10;;;22.40;52.80;;;;;;5042782;28;20706;-61
2021/08/25 07:55:05;;;;;;;2.47;1.80;;;22.50;52.90;;;;;;5047073;28;20100;-61
2021/08/25 07:57:30;;;;;;;3.90;2.25;;;22.40;52.90;;;;;;5047514;28;20465;-59
2021/08/25 07:59:56;;;;;;;2.70;1.90;;;22.50;53.00;;;;;;5043490;28;20030;-57
2021/08/25 08:02:21;;;;;;;2.70;1.95;;;22.50;53.00;;;;;;5046828;28;20104;-60
2021/08/25 08:04:47;;;;;;;3.38;2.22;;;22.50;53.10;;;;;;5045305;28;20032;-61
2021/08/25 08:07:13;;;;;;;2.97;1.90;;;22.50;53.10;;;;;;5041182;28;20039;-61
2021/08/25 08:09:40;;;;;;;3.47;2.00;;;22.50;53.10;;;;;;5037174;28;20044;-52
2021/08/25 08:12:06;;;;;;;2.78;1.90;;;22.40;53.10;;;;;;5045499;28;20098;-61
2021/08/25 08:14:33;;;;;;;2.72;2.00;;;22.50;53.10;;;;;;5041873;28;20044;-61
2021/08/25 08:17:00;;;;;;;3.20;2.13;;;22.50;53.20;;;;;;5053210;28;20029;-60
2021/08/25 08:19:30;;;;;;;3.45;1.80;;;22.50;53.20;;;;;;5048820;28;20044;-61
2021/08/25 08:21:58;;;;;;;4.07;2.28;;;22.50;53.20;;;;;;5052204;28;20121;-59
2021/08/25 08:24:23;;;;;;;3.08;2.05;;;22.50;53.20;;;;;;5044209;28;20040;-61
2021/08/25 08:26:49;;;;;;;3.80;1.90;;;22.50;53.20;;;;;;5048398;28;20132;-61
2021/08/25 08:29:15;;;;;;;3.40;2.08;;;22.50;53.20;;;;;;5045790;28;20025;-61
2021/08/25 08:31:41;;;;;;;3.22;2.10;;;22.50;53.30;;;;;;5049077;28;20131;-60
2021/08/25 08:34:07;;;;;;;5.18;2.03;;;22.50;53.30;;;;;;5042868;28;20540;-60
2021/08/25 08:36:32;;;;;;;2.70;1.80;;;22.50;53.20;;;;;;5046790;28;20021;-58
2021/08/25 08:38:58;;;;;;;3.15;1.90;;;22.50;53.20;;;;;;5046637;28;20025;-60
2021/08/25 08:41:24;;;;;;;2.90;2.00;;;22.60;53.30;;;;;;5045251;28;20029;-61
2021/08/25 08:43:57;;;;;;;3.00;2.00;;;22.50;53.30;;;;;;5098286;27;20385;-55
2021/08/25 08:46:24;;;;;;;2.90;2.00;;;22.60;53.30;;;;;;5082094;28;20028;-59
2021/08/25 08:48:52;;;;;;;3.35;2.00;;;22.60;53.30;;;;;;5081833;28;20551;-61
2021/08/25 08:51:26;;;;;;;2.67;1.92;;;22.60;53.30;;;;;;5078651;28;20043;-61
2021/08/25 08:53:53;;;;;;;2.95;1.98;;;22.60;53.30;;;;;;5084715;28;20496;-61
2021/08/25 08:56:20;;;;;;;2.72;1.92;;;22.60;53.30;;;;;;5080452;28;20375;-59
2021/08/25 08:58:46;;;;;;;2.90;1.80;;;22.60;53.30;;;;;;5080698;28;20085;-63
2021/08/25 09:01:12;;;;;;;2.80;1.83;;;22.60;53.30;;;;;;5083086;28;20057;-60
2021/08/25 09:03:39;;;;;;;3.35;2.00;;;22.60;53.30;;;;;;5084153;28;20084;-61
2021/08/25 09:06:06;;;;;;;2.60;1.90;;;22.60;53.40;;;;;;5072800;28;20107;-61
2021/08/25 09:08:34;;;;;;;3.38;2.10;;;22.60;53.40;;;;;;5071741;28;20021;-60
2021/08/25 09:11:01;;;;;;;2.42;1.73;;;22.60;53.30;;;;;;5057848;28;20017;-60
2021/08/25 09:14:08;;;;;;;2.85;1.80;;;22.60;53.30;;;;;;5037841;28;20033;-60
2021/08/25 09:16:35;;;;;;;3.10;1.70;;;22.60;53.40;;;;;;5034804;28;20037;-61
2021/08/25 09:19:08;;;;;;;3.80;1.85;;;22.60;53.40;;;;;;5042299;28;20378;-60
2021/08/25 09:21:45;;;;;;;2.58;1.60;;;22.60;53.30;;;;;;5045278;28;20032;-59
2021/08/25 09:24:12;;;;;;;2.50;1.52;;;22.60;53.40;;;;;;5044266;28;20411;-58
2021/08/25 09:27:14;;;;;;;3.05;1.85;;;22.60;53.40;;;;;;5033811;28;20028;-60
2021/08/25 09:29:42;;;;;;;3.22;1.90;;;22.70;53.50;;;;;;5035147;28;20048;-59
2021/08/25 09:32:18;;;;;;;3.30;1.95;;;22.70;53.50;;;;;;5038716;28;20125;-61
2021/08/25 09:34:44;;;;;;;2.85;1.75;;;22.70;53.50;;;;;;5035354;28;20036;-61
2021/08/25 09:37:11;;;;;;;4.15;1.88;;;22.70;53.60;;;;;;5044195;28;20063;-60
2021/08/25 09:39:45;;;;;;;3.42;1.80;;;22.70;53.60;;;;;;5038642;28;20065;-59
2021/08/25 09:42:12;;;;;;;2.58;1.60;;;22.70;53.60;;;;;;5031702;28;20474;-60
2021/08/25 09:44:39;;;;;;;2.83;1.80;;;22.70;53.60;;;;;;5037923;28;20027;-60
2021/08/25 09:47:05;;;;;;;2.40;1.70;;;22.70;53.60;;;;;;5062742;28;20591;-52
2021/08/25 09:49:30;;;;;;;3.83;1.70;;;22.70;53.50;;;;;;5025884;28;20037;-60
2021/08/25 09:51:56;;;;;;;2.50;1.88;;;22.70;53.60;;;;;;5027235;28;20429;-60
2021/08/25 09:54:22;;;;;;;3.33;2.08;;;22.70;53.50;;;;;;5019149;28;20029;-60
2021/08/25 09:56:53;;;;;;;2.83;1.70;;;22.70;53.60;;;;;;5010559;28;20159;-58
2021/08/25 09:59:19;;;;;;;3.05;1.67;;;22.80;53.60;;;;;;5027945;28;20025;-60
2021/08/25 10:01:46;;;;;;;3.28;1.88;;;22.80;53.60;;;;;;5023454;28;20029;-60
2021/08/25 10:04:14;;;;;;;3.13;2.03;;;22.80;53.70;;;;;;5023045;28;20025;-60
2021/08/25 10:06:50;;;;;;;2.78;1.75;;;22.80;53.70;;;;;;5021458;28;20449;-57
2021/08/25 10:09:17;;;;;;;2.60;1.80;;;22.80;53.60;;;;;;5025952;28;20040;-59
2021/08/25 10:11:52;;;;;;;3.13;1.77;;;22.80;53.70;;;;;;5014669;28;20049;-57
2021/08/25 10:14:18;;;;;;;2.70;1.83;;;22.80;53.60;;;;;;5018896;28;20048;-60
2021/08/25 10:16:48;;;;;;;2.50;1.70;;;22.80;53.60;;;;;;5020090;28;20024;-53
2021/08/25 10:19:34;;;;;;;2.65;1.85;;;22.80;53.60;;;;;;5025260;28;20025;-58
2021/08/25 10:22:10;;;;;;;2.88;1.60;;;22.80;53.60;;;;;;5010343;28;20412;-58
2021/08/25 10:25:02;;;;;;;2.95;1.73;;;22.80;54.20;;;;;;5024884;28;20045;-58
2021/08/25 10:27:30;;;;;;;2.75;1.77;;;22.80;53.70;;;;;;5018082;28;20108;-53
2021/08/25 10:30:15;;;;;;;2.80;1.90;;;22.80;53.70;;;;;;5023335;28;20046;-58
2021/08/25 10:32:55;;;;;;;3.10;1.90;;;22.80;53.70;;;;;;5026875;28;20026;-50
2021/08/25 10:35:29;;;;;;;2.90;1.73;;;22.80;53.70;;;;;;5011403;28;20442;-58
2021/08/25 10:38:28;;;;;;;2.97;1.90;;;22.80;53.70;;;;;;5031771;28;20084;-57
2021/08/25 10:41:20;;;;;;;3.00;1.90;;;22.80;53.70;;;;;;5023046;28;20056;-57
2021/08/25 10:43:46;;;;;;;3.20;1.73;;;22.80;53.70;;;;;;5026228;28;20037;-58
2021/08/25 10:46:14;;;;;;;4.47;1.80;;;22.80;53.70;;;;;;5029292;28;20025;-56
2021/08/25 10:48:56;;;;;;;3.88;1.90;;;22.80;53.80;;;;;;5010081;28;20338;-59
2021/08/25 10:51:34;;;;;;;3.00;1.70;;;22.90;53.80;;;;;;5036713;28;20043;-58
2021/08/25 10:54:02;;;;;;;2.72;1.75;;;22.90;53.80;;;;;;5023437;28;20033;-57
2021/08/25 10:56:36;;;;;;;2.83;1.80;;;22.90;53.80;;;;;;5026915;28;20029;-57
2021/08/25 10:59:05;;;;;;;4.10;1.85;;;22.90;53.80;;;;;;5027918;28;20044;-57
2021/08/25 11:01:30;;;;;;;3.30;2.10;;;22.90;53.80;;;;;;5032290;28;20043;-57
2021/08/25 11:04:16;;;;;;;2.80;1.90;;;22.90;53.80;;;;;;5023462;28;20037;-56
2021/08/25 11:06:52;;;;;;;3.22;1.90;;;22.90;53.80;;;;;;5020474;28;20041;-54
2021/08/25 11:09:37;;;;;;;3.38;2.00;;;22.90;53.80;;;;;;5022977;28;20477;-58
2021/08/25 11:12:09;;;;;;;2.78;1.77;;;22.90;53.80;;;;;;5020244;28;20049;-61
2021/08/25 11:14:40;;;;;;;5.18;1.90;;;22.90;53.80;;;;;;5032729;28;20060;-60
2021/08/25 11:17:10;;;;;;;3.33;1.90;;;23.00;53.80;;;;;;5028434;28;20114;-56
2021/08/25 11:19:40;;;;;;;4.57;2.00;;;23.00;53.80;;;;;;5023101;28;20068;-61
2021/08/25 11:22:08;;;;;;;3.22;2.00;;;23.00;53.80;;;;;;5028997;28;20048;-60
2021/08/25 11:24:40;;;;;;;4.10;2.17;;;23.00;53.80;;;;;;5018400;28;20091;-61
2021/08/25 11:27:17;;;;;;;3.65;2.20;;;23.00;53.80;;;;;;5011905;28;20026;-56
2021/08/25 11:29:43;;;;;;;3.28;2.00;;;23.00;53.80;;;;;;5019730;28;20657;-56
2021/08/25 11:32:08;;;;;;;3.10;1.85;;;23.00;53.80;;;;;;5015798;28;20052;-61
2021/08/25 11:34:41;;;;;;;3.55;1.80;;;23.00;53.80;;;;;;5021816;28;20038;-59
2021/08/25 11:37:07;;;;;;;3.30;2.10;;;23.00;53.70;;;;;;5017183;28;20116;-59
2021/08/25 11:39:32;;;;;;;3.55;2.13;;;23.00;53.70;;;;;;5013826;28;20109;-60
2021/08/25 11:41:58;;;;;;;4.72;2.10;;;23.00;53.70;;;;;;5008709;28;20473;-59
2021/08/25 11:44:42;;;;;;;3.97;2.00;;;23.00;53.60;;;;;;5014738;28;20414;-61
2021/08/25 11:47:16;;;;;;;3.15;2.10;;;23.00;53.50;;;;;;5015564;28;20111;-61
2021/08/25 11:49:43;;;;;;;3.55;2.10;;;23.00;53.50;;;;;;5010654;28;20025;-50
2021/08/25 11:52:10;;;;;;;3.45;2.22;;;23.00;53.40;;;;;;5010585;28;20263;-61
2021/08/25 11:54:40;;;;;;;4.65;2.20;;;23.10;53.30;;;;;;5014259;28;20791;-56
2021/08/25 11:57:11;;;;;;;3.33;2.20;;;23.00;53.30;;;;;;5008260;28;20025;-59
2021/08/25 11:59:54;;;;;;;3.38;2.05;;;23.10;53.20;;;;;;5020381;28;20027;-58
2021/08/25 12:02:20;;;;;;;3.95;2.30;;;23.10;53.20;;;;;;5013379;28;20038;-55
2021/08/25 12:04:45;;;;;;;3.70;2.35;;;23.00;53.10;;;;;;5011397;28;20032;-59
2021/08/25 12:07:11;;;;;;;3.92;2.30;;;23.10;53.10;;;;;;5010676;28;20018;-59
2021/08/25 12:09:37;;;;;;;3.97;2.17;;;23.10;53.00;;;;;;5011196;28;20382;-58
2021/08/25 12:12:03;;;;;;;3.38;2.28;;;23.10;53.00;;;;;;5021336;28;20037;-56
2021/08/25 12:14:51;;;;;;;4.28;2.30;;;23.10;53.10;;;;;;5016935;28;20099;-57
2021/08/25 12:17:16;;;;;;;4.03;2.50;;;23.10;53.10;;;;;;5017743;28;20040;-57
2021/08/25 12:19:54;;;;;;;2.97;2.20;;;23.10;53.10;;;;;;5023722;28;20025;-57
2021/08/25 12:22:26;;;;;;;4.43;2.38;;;23.10;53.70;;;;;;5008743;28;20038;-58
2021/08/25 12:24:53;;;;;;;3.92;2.50;;;23.10;53.20;;;;;;5005017;28;20030;-59
2021/08/25 12:27:20;;;;;;;3.65;2.17;;;23.10;53.20;;;;;;5006447;28;20029;-56
2021/08/25 12:29:45;;;;;;;4.15;2.33;;;23.10;53.30;;;;;;5008401;28;20105;-59
2021/08/25 12:32:12;;;;;;;3.30;2.00;;;23.10;53.30;;;;;;5009856;28;20398;-57
2021/08/25 12:34:58;;;;;;;3.10;2.05;;;23.10;53.30;;;;;;5016691;28;20034;-58
2021/08/25 12:38:03;;;;;;;3.85;2.17;;;23.10;53.30;;;;;;5009513;28;20034;-59
2021/08/25 12:40:30;;;;;;;4.07;2.33;;;23.10;53.30;;;;;;5007705;28;20216;-59
2021/08/25 12:42:57;;;;;;;3.47;2.20;;;23.10;53.40;;;;;;5013006;28;20037;-60
2021/08/25 12:45:24;;;;;;;4.88;2.40;;;23.10;53.40;;;;;;5018580;28;20057;-60
2021/08/25 12:47:51;;;;;;;3.78;2.22;;;23.10;53.40;;;;;;5011859;28;20147;-61
2021/08/25 12:50:24;;;;;;;3.70;2.50;;;23.10;53.40;;;;;;5020843;28;20085;-61
2021/08/25 12:52:50;;;;;;;4.20;2.47;;;23.10;53.50;;;;;;5027135;28;20033;-61